24°C Temp
13°C Dewpoint
% Humidity
Temperature
14 KM/H
9 MPH
8 KTS
240°
West South
West

Wind Speed
Mostly Scattered
Clouds
Pressure 999.92 (hPa) - 29.53 (in)
Visibility 6.2 (mi) - 10.0 (km)

Current Conditions
LIRQ
Location 35(km)
Metar :LIRQ 051550Z 24008KT 200V290 9999 SCT045 24/13 Q1000
Fri 5th June 17:50 pm

Airport
  Metar Aviation API Data Provided by https://www.checkwx.com/ PHP scripts by weather34.com ©2020